地図

経路データ

SID SEASON NUMBER BASIN SUBBASIN NAME ISO_TIME NATURE LAT LON WMO_WIND WMO_PRES WMO_AGENCY TRACK_TYPE DIST2LAND LANDFALL IFLAG USA_AGENCY USA_ATCF_ID USA_LAT USA_LON USA_RECORD USA_STATUS USA_WIND USA_PRES USA_SSHS USA_R34_NE USA_R34_SE USA_R34_SW USA_R34_NW USA_R50_NE USA_R50_SE USA_R50_SW USA_R50_NW USA_R64_NE USA_R64_SE USA_R64_SW USA_R64_NW USA_POCI USA_ROCI USA_RMW USA_EYE TOKYO_LAT TOKYO_LON TOKYO_GRADE TOKYO_WIND TOKYO_PRES TOKYO_R50_DIR TOKYO_R50_LONG TOKYO_R50_SHORT TOKYO_R30_DIR TOKYO_R30_LONG TOKYO_R30_SHORT TOKYO_LAND CMA_LAT CMA_LON CMA_CAT CMA_WIND CMA_PRES HKO_LAT HKO_LON HKO_CAT HKO_WIND HKO_PRES NEWDELHI_LAT NEWDELHI_LON NEWDELHI_GRADE NEWDELHI_WIND NEWDELHI_PRES NEWDELHI_CI NEWDELHI_DP NEWDELHI_POCI REUNION_LAT REUNION_LON REUNION_TYPE REUNION_WIND REUNION_PRES REUNION_TNUM REUNION_CI REUNION_RMW REUNION_R34_NE REUNION_R34_SE REUNION_R34_SW REUNION_R34_NW REUNION_R50_NE REUNION_R50_SE REUNION_R50_SW REUNION_R50_NW REUNION_R64_NE REUNION_R64_SE REUNION_R64_SW REUNION_R64_NW BOM_LAT BOM_LON BOM_TYPE BOM_WIND BOM_PRES BOM_TNUM BOM_CI BOM_RMW BOM_R34_NE BOM_R34_SE BOM_R34_SW BOM_R34_NW BOM_R50_NE BOM_R50_SE BOM_R50_SW BOM_R50_NW BOM_R64_NE BOM_R64_SE BOM_R64_SW BOM_R64_NW BOM_ROCI BOM_POCI BOM_EYE BOM_POS_METHOD BOM_PRES_METHOD NADI_LAT NADI_LON NADI_CAT NADI_WIND NADI_PRES WELLINGTON_LAT WELLINGTON_LON WELLINGTON_WIND WELLINGTON_PRES DS824_LAT DS824_LON DS824_STAGE DS824_WIND DS824_PRES TD9636_LAT TD9636_LON TD9636_STAGE TD9636_WIND TD9636_PRES TD9635_LAT TD9635_LON TD9635_WIND TD9635_PRES TD9635_ROCI NEUMANN_LAT NEUMANN_LON NEUMANN_CLASS NEUMANN_WIND NEUMANN_PRES MLC_LAT MLC_LON MLC_CLASS MLC_WIND MLC_PRES USA_GUST BOM_GUST BOM_GUST_PER REUNION_GUST REUNION_GUST_PER USA_SEAHGT USA_SEARAD_NE USA_SEARAD_SE USA_SEARAD_SW USA_SEARAD_NW STORM_SPEED STORM_DIR
2014216N21089 2014 54 NI BB NOT_NAMED 2014-08-03 12:00:00 NR 21.5000 88.5000 25 990 newdelhi main 11 0 ____O_________ -1 21.5000 88.5000 D 25 990 1.50000 4 4 343
2014216N21089 2014 54 NI BB NOT_NAMED 2014-08-03 15:00:00 NR 21.6999 88.4477 main 0 0 ____P_________ -1 21.6999 88.4477 D 27 990 5 4 335
2014216N21089 2014 54 NI BB NOT_NAMED 2014-08-03 18:00:00 NR 21.9000 88.3000 30 990 newdelhi main 0 0 ____O_________ -1 21.9000 88.3000 DD 30 990 2.00000 6 6 314
2014216N21089 2014 54 NI BB NOT_NAMED 2014-08-03 21:00:00 NR 22.1001 87.9944 main 0 0 ____P_________ -1 22.1001 87.9944 DD 30 990 6 8 302
2014216N21089 2014 54 NI BB NOT_NAMED 2014-08-04 00:00:00 NR 22.3000 87.6000 30 990 newdelhi main 0 0 ____O_________ -1 22.3000 87.6000 DD 30 990 0.00000 6 8 299
2014216N21089 2014 54 NI BB NOT_NAMED 2014-08-04 03:00:00 NR 22.5000 87.2000 30 990 newdelhi main 0 0 ____O_________ -1 22.5000 87.2000 DD 30 990 0.00000 6 10 281
2014216N21089 2014 54 NI BB NOT_NAMED 2014-08-04 06:00:00 NR 22.5000 86.5000 30 990 newdelhi main 0 0 ____O_________ -1 22.5000 86.5000 DD 30 990 0.00000 6 9 261
2014216N21089 2014 54 NI BB NOT_NAMED 2014-08-04 09:00:00 NR 22.3596 86.2386 main 0 0 ____P_________ -1 22.3596 86.2386 DD 30 990 6 5 231
2014216N21089 2014 54 NI BB NOT_NAMED 2014-08-04 12:00:00 NR 22.2000 86.1000 30 990 newdelhi main 0 0 ____O_________ -1 22.2000 86.1000 DD 30 990 0.00000 6 6 252
2014216N21089 2014 54 NI BB NOT_NAMED 2014-08-04 15:00:00 NR 22.1777 85.6451 main 0 0 ____P_________ -1 22.1777 85.6451 DD 30 990 6 9 270
2014216N21089 2014 54 NI BB NOT_NAMED 2014-08-04 18:00:00 NR 22.2000 85.1000 30 990 newdelhi main 0 0 ____O_________ -1 22.2000 85.1000 DD 30 990 0.00000 6 9 271
2014216N21089 2014 54 NI BB NOT_NAMED 2014-08-04 21:00:00 NR 22.1997 84.6205 main 0 0 ____P_________ -1 22.1997 84.6205 DD 30 990 6 9 270
2014216N21089 2014 54 NI BB NOT_NAMED 2014-08-05 00:00:00 NR 22.2000 84.1000 30 990 newdelhi main 0 0 ____O_________ -1 22.2000 84.1000 DD 30 990 0.00000 6 10 270
2014216N21089 2014 54 NI BB NOT_NAMED 2014-08-05 03:00:00 NR 22.2000 83.5000 30 994 newdelhi main 0 0 ____O_________ -1 22.2000 83.5000 DD 30 994 0.00000 6 12 304
2014216N21089 2014 54 NI BB NOT_NAMED 2014-08-05 06:00:00 NR 22.9000 83.0000 30 992 newdelhi main 0 0 ____O_________ -1 22.9000 83.0000 DD 30 992 0.00000 5 16 325
2014216N21089 2014 54 NI BB NOT_NAMED 2014-08-05 09:00:00 NR 23.5000 82.5000 25 992 newdelhi main 0 0 ____O_________ -1 23.5000 82.5000 D 25 992 0.00000 4 14 320
2014216N21089 2014 54 NI BB NOT_NAMED 2014-08-05 12:00:00 NR 24.0000 82.0000 25 992 newdelhi main 0 0 ____O_________ -1 24.0000 82.0000 D 25 992 0.00000 4 11 310
2014216N21089 2014 54 NI BB NOT_NAMED 2014-08-05 15:00:00 NR 24.1816 81.6187 main 0 0 ____P_________ -1 24.1816 81.6187 D 25 992 4 7 287
2014216N21089 2014 54 NI BB NOT_NAMED 2014-08-05 18:00:00 NR 24.2000 81.3000 25 992 newdelhi main 0 0 ____O_________ -1 24.2000 81.3000 D 25 992 0.00000 4 6 281
2014216N21089 2014 54 NI BB NOT_NAMED 2014-08-05 21:00:00 NR 24.2999 80.9602 main 0 0 ____P_________ -1 24.2999 80.9602 D 25 992 4 7 287
2014216N21089 2014 54 NI BB NOT_NAMED 2014-08-06 00:00:00 NR 24.4000 80.6000 25 992 newdelhi main 0 0 ____O_________ -1 24.4000 80.6000 D 25 992 0.00000 4 7 286
2014216N21089 2014 54 NI BB NOT_NAMED 2014-08-06 03:00:00 NR 24.5000 80.2000 25 996 newdelhi main 0 0 ____O_________ -1 24.5000 80.2000 D 25 996 0.00000 4 6 290
2014216N21089 2014 54 NI BB NOT_NAMED 2014-08-06 06:00:00 NR 24.6000 80.0000 25 994 newdelhi main 0 0 ____O_________ -1 24.6000 80.0000 D 25 994 0.00000 4 5 306
2014216N21089 2014 54 NI BB NOT_NAMED 2014-08-06 09:00:00 NR 24.7864 79.7603 main 0 0 ____P_________ -1 24.7864 79.7603 D 25 994 4 6 311
2014216N21089 2014 54 NI BB NOT_NAMED 2014-08-06 12:00:00 NR 25.0000 79.5000 25 994 newdelhi main 0 0 ____O_________ -1 25.0000 79.5000 D 25 994 0.00000 4 6 309
2014216N21089 2014 54 NI BB NOT_NAMED 2014-08-06 15:00:00 NR 25.1650 79.2499 main 0 0 ____P_________ -1 25.1650 79.2499 D 25 994 4 5 304
2014216N21089 2014 54 NI BB NOT_NAMED 2014-08-06 18:00:00 NR 25.3000 79.0000 25 994 newdelhi main 0 0 ____O_________ -1 25.3000 79.0000 D 25 994 0.00000 4 5 298
2014216N21089 2014 54 NI BB NOT_NAMED 2014-08-06 21:00:00 NR 25.4076 78.7501 main 0 0 ____P_________ -1 25.4076 78.7501 D 25 994 3 5 294
2014216N21089 2014 54 NI BB NOT_NAMED 2014-08-07 00:00:00 NR 25.5000 78.5000 25 994 newdelhi main 0 ____O_________ -1 25.5000 78.5000 D 25 994 0.00000 3 5 292

IBTrACS Databaseについて

本データベースは、米国NOAAが公開する1842年以降の世界の熱帯低気圧のベストトラックデータアーカイブInternational Best Track Archive for Climate Stewardship (IBTrACS)を、ウェブで閲覧しやすい形式に変換したものです。

最終更新日:2021-11-26